createdAt,value
2018-01-19T00:00:06.566Z,11.03
2018-01-19T00:02:34.205Z,12.07
2018-01-19T00:05:02.300Z,12.27
2018-01-19T00:07:30.067Z,10.37
2018-01-19T00:09:57.571Z,13.53
2018-01-19T00:12:25.255Z,15.50
2018-01-19T00:14:54.447Z,10.80
2018-01-19T00:17:21.938Z,13.17
2018-01-19T00:19:49.802Z,10.93
2018-01-19T00:22:17.299Z,10.97
2018-01-19T00:24:45.001Z,11.80
2018-01-19T00:27:13.097Z,11.70
2018-01-19T00:29:40.857Z,9.53
2018-01-19T00:32:09.198Z,11.30
2018-01-19T00:34:36.707Z,11.03
2018-01-19T00:37:04.198Z,9.70
2018-01-19T00:39:31.708Z,11.00
2018-01-19T00:41:59.204Z,8.67
2018-01-19T00:44:27.500Z,9.20
2018-01-19T00:46:55.230Z,10.17
2018-01-19T00:49:22.734Z,9.30
2018-01-19T00:51:50.424Z,8.53
2018-01-19T00:54:18.507Z,8.10
2018-01-19T00:56:47.202Z,8.30
2018-01-19T00:59:14.713Z,8.43
2018-01-19T01:01:43.351Z,9.27
2018-01-19T01:04:10.855Z,7.17
2018-01-19T01:06:38.402Z,7.20
2018-01-19T01:09:05.995Z,6.37
2018-01-19T01:11:33.486Z,6.70
2018-01-19T01:14:00.975Z,6.50
2018-01-19T01:16:28.678Z,6.90
2018-01-19T01:18:56.434Z,10.10
2018-01-19T01:21:24.830Z,9.40
2018-01-19T01:23:52.595Z,8.77
2018-01-19T01:26:20.100Z,7.70
2018-01-19T01:28:47.611Z,7.70
2018-01-19T01:31:16.219Z,8.30
2018-01-19T01:33:43.715Z,7.90
2018-01-19T01:36:11.781Z,7.57
2018-01-19T01:38:40.303Z,6.90
2018-01-19T01:41:07.816Z,6.73
2018-01-19T01:43:35.615Z,7.20
2018-01-19T01:46:03.514Z,9.00
2018-01-19T01:48:31.986Z,7.80
2018-01-19T01:51:00.403Z,7.50
2018-01-19T01:53:27.895Z,9.90
2018-01-19T01:55:55.402Z,7.90
2018-01-19T01:58:23.111Z,9.17
2018-01-19T02:00:50.871Z,8.27
2018-01-19T02:03:18.821Z,8.30
2018-01-19T02:05:46.402Z,9.23
2018-01-19T02:08:13.903Z,9.30
2018-01-19T02:10:42.163Z,11.30
2018-01-19T02:13:11.531Z,8.77
2018-01-19T02:15:39.414Z,8.27
2018-01-19T02:18:07.382Z,8.57
2018-01-19T02:20:34.880Z,8.97
2018-01-19T02:23:02.587Z,9.30
2018-01-19T02:25:30.229Z,9.23
2018-01-19T02:27:57.714Z,8.57
2018-01-19T02:30:25.267Z,9.33
2018-01-19T02:32:53.083Z,9.90
2018-01-19T02:35:20.799Z,10.93
2018-01-19T02:37:48.792Z,8.97
2018-01-19T02:40:16.314Z,9.97
2018-01-19T02:42:43.829Z,10.60
2018-01-19T02:45:12.392Z,12.03
2018-01-19T02:47:40.535Z,9.67
2018-01-19T02:50:09.339Z,10.20
2018-01-19T02:52:36.979Z,10.20
2018-01-19T02:55:05.371Z,9.40
2018-01-19T02:57:33.279Z,10.20
2018-01-19T03:00:01.557Z,9.63
2018-01-19T03:02:29.063Z,8.10
2018-01-19T03:04:56.719Z,10.67
2018-01-19T03:07:24.371Z,8.83
2018-01-19T03:09:52.554Z,9.07
2018-01-19T03:12:20.568Z,8.77
2018-01-19T03:14:48.066Z,8.70
2018-01-19T03:17:15.575Z,9.90
2018-01-19T03:19:43.079Z,9.80
2018-01-19T03:22:11.714Z,9.83
2018-01-19T03:24:39.725Z,9.10
2018-01-19T03:27:07.823Z,10.20
2018-01-19T03:29:35.331Z,8.83
2018-01-19T03:32:03.310Z,11.53
2018-01-19T03:34:30.811Z,11.37
2018-01-19T03:36:58.314Z,10.20
2018-01-19T03:39:25.962Z,12.10
2018-01-19T03:41:53.482Z,10.90
2018-01-19T03:44:21.247Z,11.67
2018-01-19T03:46:48.742Z,10.47
2018-01-19T03:49:16.251Z,11.73
2018-01-19T03:51:43.923Z,11.87
2018-01-19T03:54:11.429Z,10.53
2018-01-19T03:56:39.330Z,10.33
2018-01-19T03:59:07.596Z,9.70
2018-01-19T04:01:35.591Z,10.30
2018-01-19T04:04:03.659Z,9.37
2018-01-19T04:06:31.423Z,9.20
2018-01-19T04:08:59.199Z,9.30
2018-01-19T04:11:27.977Z,9.53
2018-01-19T04:13:55.642Z,10.53
2018-01-19T04:16:23.146Z,10.40
2018-01-19T04:18:50.643Z,9.37
2018-01-19T04:21:18.314Z,9.87
2018-01-19T04:23:46.324Z,9.30
2018-01-19T04:26:13.876Z,8.90
2018-01-19T04:28:41.315Z,9.30
2018-01-19T04:31:09.666Z,8.87
2018-01-19T04:33:37.315Z,10.10
2018-01-19T04:36:06.122Z,9.97
2018-01-19T04:38:34.595Z,9.03
2018-01-19T04:41:02.095Z,9.63
2018-01-19T04:43:29.599Z,8.67
2018-01-19T04:45:57.486Z,8.43
2018-01-19T04:48:24.990Z,9.07
2018-01-19T04:50:52.810Z,9.97
2018-01-19T04:53:20.722Z,9.10
2018-01-19T04:55:49.579Z,10.10
2018-01-19T04:58:17.226Z,10.83
2018-01-19T05:00:44.998Z,9.00
2018-01-19T05:03:12.502Z,10.23
2018-01-19T05:05:41.755Z,10.70
2018-01-19T05:08:10.250Z,10.30
2018-01-19T05:10:37.747Z,9.90
2018-01-19T05:13:05.353Z,9.13
2018-01-19T05:15:32.843Z,10.83
2018-01-19T05:18:00.527Z,8.60
2018-01-19T05:20:28.418Z,8.23
2018-01-19T05:22:56.641Z,7.73
2018-01-19T05:25:24.140Z,9.27
2018-01-19T05:27:52.215Z,9.20
2018-01-19T05:30:19.745Z,7.53
2018-01-19T05:32:47.419Z,7.50
2018-01-19T05:35:15.039Z,7.97
2018-01-19T05:37:44.800Z,7.93
2018-01-19T05:40:12.679Z,7.93
2018-01-19T05:42:40.174Z,8.67
2018-01-19T05:45:08.722Z,7.93
2018-01-19T05:47:36.228Z,7.50
2018-01-19T05:50:04.258Z,7.40
2018-01-19T05:52:31.749Z,8.67
2018-01-19T05:54:59.478Z,8.00
2018-01-19T05:57:27.234Z,7.80
2018-01-19T05:59:54.738Z,7.40
2018-01-19T06:02:22.743Z,7.90
2018-01-19T06:04:50.227Z,7.00
2018-01-19T06:07:18.131Z,7.97
2018-01-19T06:09:46.398Z,7.00
2018-01-19T06:12:14.898Z,8.10
2018-01-19T06:14:43.482Z,8.13
2018-01-19T06:17:11.155Z,7.30
2018-01-19T06:19:38.651Z,7.33
2018-01-19T06:22:06.195Z,6.97
2018-01-19T06:24:34.147Z,7.83
2018-01-19T06:27:02.248Z,8.83
2018-01-19T06:29:30.008Z,7.83
2018-01-19T06:31:57.766Z,8.27
2018-01-19T06:34:25.267Z,6.37
2018-01-19T06:36:53.127Z,7.90
2018-01-19T06:39:21.058Z,5.23
2018-01-19T06:41:48.605Z,6.07
2018-01-19T06:44:16.091Z,7.20
2018-01-19T06:46:44.370Z,6.33
2018-01-19T06:49:11.889Z,5.80
2018-01-19T06:51:39.594Z,6.80
2018-01-19T06:54:07.642Z,6.50
2018-01-19T06:56:35.531Z,6.60
2018-01-19T06:59:03.179Z,6.87
2018-01-19T07:01:30.802Z,7.10
2018-01-19T07:04:00.012Z,6.67
2018-01-19T07:06:27.704Z,7.90
2018-01-19T07:08:55.319Z,7.73
2018-01-19T07:11:22.914Z,7.27
2018-01-19T07:13:50.947Z,8.27
2018-01-19T07:16:18.451Z,6.67
2018-01-19T07:18:46.730Z,7.57
2018-01-19T07:21:14.246Z,6.80
2018-01-19T07:23:42.311Z,7.57
2018-01-19T07:26:10.019Z,8.07
2018-01-19T07:28:37.569Z,6.93
2018-01-19T07:31:05.331Z,6.43
2018-01-19T07:33:33.272Z,7.50
2018-01-19T07:36:00.851Z,7.00
2018-01-19T07:38:28.742Z,6.20
2018-01-19T07:40:56.350Z,7.03
2018-01-19T07:43:23.850Z,6.27
2018-01-19T07:45:51.353Z,7.60
2018-01-19T07:48:19.767Z,8.00
2018-01-19T07:50:47.650Z,8.00
2018-01-19T07:53:15.200Z,6.50
2018-01-19T07:55:43.089Z,7.80
2018-01-19T07:58:12.210Z,7.73
2018-01-19T08:00:40.119Z,10.30
2018-01-19T08:03:08.931Z,7.37
2018-01-19T08:05:37.400Z,8.20
2018-01-19T08:08:05.798Z,9.13
2018-01-19T08:10:34.458Z,8.27
2018-01-19T08:13:01.978Z,7.30
2018-01-19T08:15:29.473Z,7.80
2018-01-19T08:17:57.138Z,8.77
2018-01-19T08:20:26.287Z,7.20
2018-01-19T08:22:54.815Z,7.40
2018-01-19T08:25:22.527Z,8.00
2018-01-19T08:27:50.339Z,7.43
2018-01-19T08:30:18.244Z,8.60
2018-01-19T08:32:47.394Z,8.30
2018-01-19T08:35:15.810Z,8.03
2018-01-19T08:37:43.728Z,7.70
2018-01-19T08:40:11.206Z,7.93
2018-01-19T08:42:39.314Z,9.83
2018-01-19T08:45:06.823Z,10.23
2018-01-19T08:47:34.330Z,10.70
2018-01-19T08:50:02.672Z,9.80
2018-01-19T08:52:30.707Z,10.53
2018-01-19T08:54:58.504Z,10.20
2018-01-19T08:57:26.007Z,10.80
2018-01-19T08:59:53.727Z,11.60
2018-01-19T09:02:23.074Z,13.77
2018-01-19T09:04:51.083Z,11.90
2018-01-19T09:07:19.088Z,11.43
2018-01-19T09:09:46.628Z,10.50
2018-01-19T09:12:14.847Z,11.40
2018-01-19T09:14:43.392Z,12.30
2018-01-19T09:17:11.003Z,13.33
2018-01-19T09:19:38.611Z,13.50
2018-01-19T09:22:07.227Z,12.20
2018-01-19T09:24:34.740Z,10.17
2018-01-19T09:27:02.999Z,13.80
2018-01-19T09:29:31.353Z,13.60
2018-01-19T09:31:58.883Z,15.00
2018-01-19T09:34:27.627Z,8.93
2018-01-19T09:36:55.126Z,13.67
2018-01-19T09:39:22.651Z,14.87
2018-01-19T09:41:50.142Z,12.67
2018-01-19T09:44:17.780Z,15.53
2018-01-19T09:46:45.287Z,17.00
2018-01-19T09:49:13.003Z,18.33
2018-01-19T09:51:40.759Z,17.10
2018-01-19T09:54:08.278Z,19.63
2018-01-19T09:56:35.974Z,17.57
2018-01-19T09:59:03.520Z,17.50
2018-01-19T10:01:31.171Z,18.50
2018-01-19T10:03:58.962Z,18.87
2018-01-19T10:06:27.971Z,16.43
2018-01-19T10:08:56.295Z,18.90
2018-01-19T10:11:23.800Z,18.20
2018-01-19T10:13:51.362Z,18.80
2018-01-19T10:16:19.005Z,22.67
2018-01-19T10:18:46.504Z,23.70
2018-01-19T10:21:14.403Z,15.97
2018-01-19T10:23:43.213Z,20.90
2018-01-19T10:26:10.715Z,17.20
2018-01-19T10:28:38.434Z,19.73
2018-01-19T10:31:06.077Z,19.60
2018-01-19T10:33:33.624Z,22.73
2018-01-19T10:36:01.425Z,18.43
2018-01-19T10:38:28.919Z,21.23
2018-01-19T10:40:57.134Z,20.63
2018-01-19T10:43:24.625Z,22.43
2018-01-19T10:45:53.086Z,21.97
2018-01-19T10:48:20.601Z,21.80
2018-01-19T10:50:48.924Z,20.10
2018-01-19T10:53:16.687Z,23.27
2018-01-19T10:55:44.199Z,22.03
2018-01-19T10:58:11.703Z,23.30
2018-01-19T11:00:39.206Z,24.10
2018-01-19T11:03:09.498Z,23.87
2018-01-19T11:05:36.994Z,23.17
2018-01-19T11:08:04.816Z,27.07
2018-01-19T11:10:33.187Z,25.70
2018-01-19T11:13:00.707Z,26.70
2018-01-19T11:15:29.327Z,26.57
2018-01-19T11:17:56.844Z,25.03
2018-01-19T11:20:24.509Z,25.47
2018-01-19T11:22:52.015Z,26.57
2018-01-19T11:25:19.825Z,28.90
2018-01-19T11:27:47.268Z,27.30
2018-01-19T11:30:15.579Z,24.97
2018-01-19T11:32:43.863Z,25.87
2018-01-19T11:35:11.767Z,24.50
2018-01-19T11:37:39.266Z,25.07
2018-01-19T11:40:06.962Z,27.57
2018-01-19T11:42:34.467Z,24.17
2018-01-19T11:45:03.131Z,22.83
2018-01-19T11:47:31.086Z,24.27
2018-01-19T11:49:59.353Z,21.43
2018-01-19T11:52:27.007Z,23.00
2018-01-19T11:54:54.771Z,22.10
2018-01-19T11:57:22.280Z,25.23
2018-01-19T11:59:49.997Z,22.67
2018-01-19T12:02:17.495Z,20.43
2018-01-19T12:04:45.221Z,22.80
2018-01-19T12:07:12.743Z,24.20
2018-01-19T12:09:41.305Z,24.67
2018-01-19T12:12:09.039Z,28.53
2018-01-19T12:14:36.986Z,25.27
2018-01-19T12:17:04.611Z,29.47
2018-01-19T12:19:32.210Z,26.70
2018-01-19T12:22:00.528Z,27.73
2018-01-19T12:24:28.043Z,29.20
2018-01-19T12:26:55.665Z,25.80
2018-01-19T12:29:23.384Z,27.87
2018-01-19T12:31:50.882Z,27.77
2018-01-19T12:34:19.292Z,25.60
2018-01-19T12:36:47.054Z,30.10
2018-01-19T12:39:15.212Z,28.67
2018-01-19T12:41:42.900Z,28.80
2018-01-19T12:44:10.407Z,23.87
2018-01-19T12:46:39.041Z,27.53
2018-01-19T12:49:06.807Z,28.67
2018-01-19T12:51:34.298Z,29.00
2018-01-19T12:54:02.924Z,25.03
2018-01-19T12:56:31.292Z,23.70
2018-01-19T12:58:58.791Z,25.33
2018-01-19T13:01:26.308Z,24.57
2018-01-19T13:03:53.810Z,20.60
2018-01-19T13:06:21.430Z,24.07
2018-01-19T13:08:48.927Z,24.50
2018-01-19T13:11:17.956Z,22.87
2018-01-19T13:13:45.463Z,24.13
2018-01-19T13:16:13.140Z,19.67
2018-01-19T13:18:40.888Z,21.73
2018-01-19T13:21:08.400Z,21.70
2018-01-19T13:23:36.107Z,22.43
2018-01-19T13:26:03.620Z,20.30
2018-01-19T13:28:31.122Z,17.60
2018-01-19T13:30:59.724Z,21.20
2018-01-19T13:33:27.469Z,24.30
2018-01-19T13:35:55.538Z,18.07
2018-01-19T13:38:23.301Z,18.90
2018-01-19T13:40:51.715Z,20.07
2018-01-19T13:43:19.216Z,19.07
2018-01-19T13:45:47.848Z,19.07
2018-01-19T13:48:15.352Z,20.70
2018-01-19T13:50:43.347Z,19.70
2018-01-19T13:53:11.396Z,19.90
2018-01-19T13:55:39.454Z,19.30
2018-01-19T13:58:06.960Z,21.70
2018-01-19T14:00:35.296Z,18.57
2018-01-19T14:03:03.099Z,19.10
2018-01-19T14:05:30.726Z,21.67
2018-01-19T14:07:58.290Z,21.50
2018-01-19T14:10:26.971Z,19.07
2018-01-19T14:12:54.472Z,22.07
2018-01-19T14:15:23.989Z,24.10
2018-01-19T14:17:52.264Z,21.73
2018-01-19T14:20:19.761Z,23.17
2018-01-19T14:22:47.366Z,20.63
2018-01-19T14:25:15.250Z,25.43
2018-01-19T14:27:43.521Z,22.33
2018-01-19T14:30:11.837Z,22.70
2018-01-19T14:32:39.939Z,14.23
2018-01-19T14:35:07.853Z,22.27
2018-01-19T14:37:36.103Z,21.63
2018-01-19T14:40:03.634Z,23.27
2018-01-19T14:42:31.276Z,22.37
2018-01-19T14:45:00.326Z,22.10
2018-01-19T14:47:29.171Z,19.70
2018-01-19T14:49:56.739Z,24.20
2018-01-19T14:52:25.335Z,23.83
2018-01-19T14:54:53.495Z,24.40
2018-01-19T14:57:20.989Z,24.17
2018-01-19T14:59:49.959Z,22.20
2018-01-19T15:02:17.719Z,20.57
2018-01-19T15:04:45.235Z,24.83
2018-01-19T15:07:12.927Z,26.97
2018-01-19T15:09:40.769Z,26.57
2018-01-19T15:12:08.247Z,24.30
2018-01-19T15:14:35.903Z,25.30
2018-01-19T15:17:04.190Z,23.57
2018-01-19T15:19:31.747Z,25.70
2018-01-19T15:21:59.511Z,22.13
2018-01-19T15:24:27.286Z,23.57
2018-01-19T15:26:54.894Z,20.37
2018-01-19T15:29:22.676Z,25.30
2018-01-19T15:31:50.235Z,25.60
2018-01-19T15:34:17.801Z,24.50
2018-01-19T15:36:45.299Z,23.10
2018-01-19T15:39:12.935Z,25.70
2018-01-19T15:41:40.699Z,22.13
2018-01-19T15:44:08.198Z,21.77
2018-01-19T15:46:36.530Z,24.70
2018-01-19T15:49:04.295Z,24.70
2018-01-19T15:51:32.663Z,25.00
2018-01-19T15:54:00.168Z,23.60
2018-01-19T15:56:27.932Z,23.60
2018-01-19T15:58:55.640Z,21.63
2018-01-19T16:01:23.263Z,20.80
2018-01-19T16:03:51.519Z,18.47
2018-01-19T16:06:19.022Z,21.07
2018-01-19T16:08:46.538Z,22.00
2018-01-19T16:11:14.041Z,22.03
2018-01-19T16:13:41.540Z,20.63
2018-01-19T16:16:09.062Z,20.60
2018-01-19T16:18:36.591Z,19.67
2018-01-19T16:21:04.214Z,18.60
2018-01-19T16:23:31.758Z,21.37
2018-01-19T16:25:59.482Z,22.20
2018-01-19T16:28:27.619Z,21.80
2018-01-19T16:30:56.615Z,20.20
2018-01-19T16:33:24.358Z,20.13
2018-01-19T16:35:52.311Z,21.47
2018-01-19T16:38:20.952Z,21.10
2018-01-19T16:40:49.488Z,21.83
2018-01-19T16:43:17.555Z,20.23
2018-01-19T16:45:45.107Z,23.70
2018-01-19T16:48:13.262Z,21.53
2018-01-19T16:50:40.823Z,22.47
2018-01-19T16:53:09.135Z,23.17
2018-01-19T16:55:37.239Z,21.63
2018-01-19T16:58:04.747Z,22.73
2018-01-19T17:00:32.246Z,20.30
2018-01-19T17:03:00.701Z,18.40
2018-01-19T17:05:28.195Z,19.27
2018-01-19T17:07:56.732Z,17.97
2018-01-19T17:10:24.810Z,20.10
2018-01-19T17:12:52.320Z,19.60
2018-01-19T17:15:20.322Z,16.10
2018-01-19T17:17:48.271Z,22.10
2018-01-19T17:20:15.764Z,16.20
2018-01-19T17:22:43.662Z,14.30
2018-01-19T17:25:11.163Z,17.20
2018-01-19T17:27:38.915Z,18.03
2018-01-19T17:30:06.423Z,19.10
2018-01-19T17:32:34.351Z,18.60
2018-01-19T17:35:02.247Z,17.73
2018-01-19T17:37:29.887Z,16.80
2018-01-19T17:39:57.391Z,16.10
2018-01-19T17:42:25.122Z,15.70
2018-01-19T17:44:52.707Z,13.60
2018-01-19T17:47:20.209Z,13.50
2018-01-19T17:49:47.766Z,12.20
2018-01-19T17:52:15.563Z,13.27
2018-01-19T17:54:43.891Z,12.93
2018-01-19T17:57:11.985Z,13.17
2018-01-19T17:59:39.486Z,13.53
2018-01-19T18:02:06.991Z,13.07
2018-01-19T18:04:34.564Z,13.90
2018-01-19T18:07:03.083Z,14.10
2018-01-19T18:09:32.108Z,15.10
2018-01-19T18:11:59.795Z,15.23
2018-01-19T18:14:27.580Z,14.90
2018-01-19T18:16:55.786Z,15.17
2018-01-19T18:19:23.727Z,13.17
2018-01-19T18:21:51.486Z,15.10
2018-01-19T18:24:19.601Z,14.93
2018-01-19T18:26:47.142Z,14.40
2018-01-19T18:29:14.782Z,10.67
2018-01-19T18:31:42.752Z,14.30
2018-01-19T18:34:10.617Z,14.40
2018-01-19T18:36:38.144Z,14.40
2018-01-19T18:39:05.656Z,12.27
2018-01-19T18:41:34.215Z,12.77
2018-01-19T18:44:02.108Z,12.07
2018-01-19T18:46:30.383Z,12.50
2018-01-19T18:48:57.920Z,13.47
2018-01-19T18:51:25.558Z,13.53
2018-01-19T18:53:53.451Z,12.43
2018-01-19T18:56:21.736Z,13.90
2018-01-19T18:58:50.386Z,14.23
2018-01-19T19:01:17.902Z,14.90
2018-01-19T19:03:45.483Z,13.47
2018-01-19T19:06:12.987Z,13.33
2018-01-19T19:08:41.246Z,13.37
2018-01-19T19:11:08.977Z,14.67
2018-01-19T19:13:36.644Z,14.43
2018-01-19T19:16:04.465Z,15.70
2018-01-19T19:18:32.310Z,13.93
2018-01-19T19:20:59.936Z,15.37
2018-01-19T19:23:28.513Z,16.00
2018-01-19T19:25:56.999Z,15.10
2018-01-19T19:28:25.131Z,15.07
2018-01-19T19:30:52.846Z,16.10
2018-01-19T19:33:21.199Z,14.27
2018-01-19T19:35:49.535Z,16.80
2018-01-19T19:38:17.079Z,16.70
2018-01-19T19:40:44.579Z,12.90
2018-01-19T19:43:12.087Z,12.70
2018-01-19T19:45:39.743Z,16.40
2018-01-19T19:48:07.268Z,16.80
2018-01-19T19:50:34.991Z,15.00
2018-01-19T19:53:02.631Z,15.27
2018-01-19T19:55:30.191Z,11.30
2018-01-19T19:57:57.708Z,13.10
2018-01-19T20:00:25.381Z,14.83
2018-01-19T20:02:54.268Z,14.20
2018-01-19T20:05:22.153Z,11.97
2018-01-19T20:07:49.648Z,15.30
2018-01-19T20:10:18.047Z,13.87
2018-01-19T20:12:46.345Z,16.53
2018-01-19T20:15:13.929Z,11.97
2018-01-19T20:17:41.463Z,14.67
2018-01-19T20:20:09.674Z,13.30
2018-01-19T20:22:37.191Z,14.63
2018-01-19T20:25:04.848Z,14.83
2018-01-19T20:27:33.227Z,13.20
2018-01-19T20:30:00.771Z,11.57
2018-01-19T20:32:28.614Z,12.10
2018-01-19T20:34:56.884Z,12.93
2018-01-19T20:37:24.592Z,10.40
2018-01-19T20:39:52.387Z,10.63
2018-01-19T20:42:20.150Z,10.20
2018-01-19T20:44:48.046Z,8.80
2018-01-19T20:47:15.683Z,8.43
2018-01-19T20:49:43.456Z,7.53
2018-01-19T20:52:11.211Z,6.67
2018-01-19T20:54:40.510Z,6.23
2018-01-19T20:57:08.042Z,6.50
2018-01-19T20:59:35.693Z,7.33
2018-01-19T21:02:03.190Z,8.10
2018-01-19T21:04:30.737Z,9.07
2018-01-19T21:06:58.226Z,9.33
2018-01-19T21:09:26.494Z,9.77
2018-01-19T21:11:55.152Z,9.73
2018-01-19T21:14:22.668Z,12.17
2018-01-19T21:16:50.371Z,12.10
2018-01-19T21:19:17.887Z,11.70
2018-01-19T21:21:45.534Z,12.20
2018-01-19T21:24:13.061Z,12.70
2018-01-19T21:26:40.579Z,14.07
2018-01-19T21:29:08.570Z,14.43
2018-01-19T21:31:36.073Z,8.90
2018-01-19T21:34:03.590Z,15.23
2018-01-19T21:36:31.875Z,13.97
2018-01-19T21:39:00.232Z,16.37
2018-01-19T21:41:27.715Z,16.80
2018-01-19T21:43:55.248Z,16.70
2018-01-19T21:46:22.750Z,16.43
2018-01-19T21:48:51.304Z,16.73
2018-01-19T21:51:18.817Z,15.83
2018-01-19T21:53:46.483Z,15.67
2018-01-19T21:56:14.283Z,17.27
2018-01-19T21:58:42.183Z,17.60
2018-01-19T22:01:09.692Z,16.63
2018-01-19T22:03:37.251Z,17.23
2018-01-19T22:06:05.028Z,18.40
2018-01-19T22:08:32.522Z,17.70
2018-01-19T22:11:00.234Z,14.87
2018-01-19T22:13:27.718Z,17.70
2018-01-19T22:15:56.349Z,19.10
2018-01-19T22:18:23.846Z,18.90
2018-01-19T22:20:52.831Z,17.97
2018-01-19T22:23:20.329Z,19.70
2018-01-19T22:25:47.830Z,21.53
2018-01-19T22:28:15.480Z,14.90
2018-01-19T22:30:42.987Z,19.57
2018-01-19T22:33:10.690Z,15.50
2018-01-19T22:35:38.591Z,19.73
2018-01-19T22:38:06.890Z,19.37
2018-01-19T22:40:34.800Z,18.10
2018-01-19T22:43:03.062Z,19.73
2018-01-19T22:45:30.782Z,18.13
2018-01-19T22:47:58.282Z,19.67
2018-01-19T22:50:27.323Z,17.90
2018-01-19T22:52:55.958Z,16.30
2018-01-19T22:55:24.155Z,19.27
2018-01-19T22:57:51.750Z,20.33
2018-01-19T23:00:20.078Z,20.30
2018-01-19T23:02:47.586Z,17.50
2018-01-19T23:05:15.362Z,21.00
2018-01-19T23:07:42.857Z,19.63
2018-01-19T23:10:10.828Z,20.40
2018-01-19T23:12:38.335Z,19.57
2018-01-19T23:15:06.402Z,18.80
2018-01-19T23:17:34.167Z,17.50
2018-01-19T23:20:01.663Z,20.10
2018-01-19T23:22:29.888Z,17.07
2018-01-19T23:24:57.414Z,14.47
2018-01-19T23:27:24.928Z,19.10
2018-01-19T23:29:52.422Z,14.73
2018-01-19T23:32:20.131Z,20.33
2018-01-19T23:34:47.894Z,18.70
2018-01-19T23:37:15.655Z,17.43
2018-01-19T23:39:43.270Z,15.47
2018-01-19T23:42:11.540Z,18.53
2018-01-19T23:44:39.260Z,17.63
2018-01-19T23:47:07.327Z,18.10
2018-01-19T23:49:34.835Z,19.23
2018-01-19T23:52:02.552Z,18.53
2018-01-19T23:54:31.958Z,18.10
2018-01-19T23:57:00.583Z,18.13
2018-01-19T23:59:29.848Z,16.97
